createdAt,value
2017-05-28T00:01:23.509Z,17.50
2017-05-28T00:03:51.261Z,17.50
2017-05-28T00:06:18.997Z,17.50
2017-05-28T00:08:46.760Z,17.50
2017-05-28T00:11:14.491Z,17.40
2017-05-28T00:13:42.219Z,17.40
2017-05-28T00:16:09.976Z,17.30
2017-05-28T00:18:37.708Z,17.30
2017-05-28T00:21:05.464Z,17.20
2017-05-28T00:23:33.201Z,17.30
2017-05-28T00:26:00.968Z,17.30
2017-05-28T00:28:28.709Z,17.20
2017-05-28T00:30:56.440Z,17.30
2017-05-28T00:33:24.202Z,17.30
2017-05-28T00:35:51.936Z,17.20
2017-05-28T00:38:19.703Z,17.20
2017-05-28T00:40:47.428Z,17.20
2017-05-28T00:43:15.152Z,17.20
2017-05-28T00:45:42.901Z,17.30
2017-05-28T00:48:10.694Z,17.30
2017-05-28T00:50:38.412Z,17.20
2017-05-28T00:53:06.146Z,17.20
2017-05-28T00:55:33.913Z,17.10
2017-05-28T00:58:01.640Z,17.10
2017-05-28T01:00:29.373Z,17.10
2017-05-28T01:02:57.128Z,17.10
2017-05-28T01:05:24.866Z,17.10
2017-05-28T01:07:52.593Z,17.10
2017-05-28T01:10:20.352Z,17.10
2017-05-28T01:12:48.076Z,17.10
2017-05-28T01:15:15.825Z,17.10
2017-05-28T01:17:43.586Z,17.10
2017-05-28T01:20:11.348Z,17.10
2017-05-28T01:22:39.079Z,17.10
2017-05-28T01:25:06.802Z,17.00
2017-05-28T01:27:34.552Z,17.10
2017-05-28T01:30:02.276Z,17.10
2017-05-28T01:32:30.020Z,17.10
2017-05-28T01:34:57.759Z,17.10
2017-05-28T01:37:25.493Z,17.10
2017-05-28T01:39:53.249Z,17.10
2017-05-28T01:42:20.980Z,17.00
2017-05-28T01:44:48.741Z,17.10
2017-05-28T01:47:16.476Z,17.10
2017-05-28T01:49:44.236Z,17.00
2017-05-28T01:52:11.972Z,17.00
2017-05-28T01:54:39.698Z,17.00
2017-05-28T01:57:07.453Z,17.00
2017-05-28T01:59:35.188Z,17.00
2017-05-28T02:02:02.938Z,17.00
2017-05-28T02:04:30.668Z,17.00
2017-05-28T02:06:58.419Z,17.00
2017-05-28T02:09:26.150Z,17.10
2017-05-28T02:11:53.919Z,17.00
2017-05-28T02:14:21.646Z,17.00
2017-05-28T02:16:49.377Z,17.00
2017-05-28T02:19:17.143Z,16.90
2017-05-28T02:21:44.868Z,17.00
2017-05-28T02:24:12.620Z,17.00
2017-05-28T02:26:40.344Z,16.90
2017-05-28T02:29:08.101Z,16.90
2017-05-28T02:31:35.060Z,16.90
2017-05-28T02:34:02.836Z,16.90
2017-05-28T02:36:30.576Z,16.80
2017-05-28T02:38:58.308Z,16.80
2017-05-28T02:41:26.078Z,16.80
2017-05-28T02:43:53.804Z,16.80
2017-05-28T02:46:21.556Z,16.80
2017-05-28T02:48:49.288Z,16.80
2017-05-28T02:51:17.445Z,16.70
2017-05-28T02:53:45.184Z,16.80
2017-05-28T02:56:12.905Z,16.80
2017-05-28T02:58:40.660Z,16.80
2017-05-28T03:01:08.384Z,16.80
2017-05-28T03:03:36.141Z,16.80
2017-05-28T03:06:03.864Z,16.80
2017-05-28T03:08:31.629Z,16.80
2017-05-28T03:10:59.352Z,16.80
2017-05-28T03:13:27.121Z,16.90
2017-05-28T03:15:55.076Z,16.90
2017-05-28T03:18:22.813Z,16.90
2017-05-28T03:20:50.540Z,16.90
2017-05-28T03:23:18.304Z,16.90
2017-05-28T03:25:46.061Z,16.90
2017-05-28T03:28:13.791Z,16.90
2017-05-28T03:30:41.560Z,16.90
2017-05-28T03:33:09.285Z,16.90
2017-05-28T03:35:37.028Z,17.00
2017-05-28T03:38:04.792Z,17.00
2017-05-28T03:40:32.515Z,17.10
2017-05-28T03:43:00.280Z,17.20
2017-05-28T03:45:28.003Z,17.30
2017-05-28T03:47:55.917Z,17.30
2017-05-28T03:50:23.650Z,17.30
2017-05-28T03:52:51.377Z,17.40
2017-05-28T03:55:19.156Z,17.50
2017-05-28T03:57:46.897Z,17.60
2017-05-28T04:00:14.655Z,17.80
2017-05-28T04:02:42.386Z,17.80
2017-05-28T04:05:10.134Z,17.90
2017-05-28T04:07:37.864Z,18.00
2017-05-28T04:10:05.645Z,18.10
2017-05-28T04:12:33.385Z,18.20
2017-05-28T04:15:01.111Z,18.30
2017-05-28T04:17:28.868Z,18.30
2017-05-28T04:19:56.596Z,18.40
2017-05-28T04:22:24.353Z,18.50
2017-05-28T04:24:52.080Z,18.60
2017-05-28T04:27:19.836Z,18.60
2017-05-28T04:29:47.566Z,18.70
2017-05-28T04:32:15.292Z,18.70
2017-05-28T04:34:43.058Z,18.70
2017-05-28T04:37:10.786Z,18.70
2017-05-28T04:39:38.561Z,18.80
2017-05-28T04:42:06.284Z,18.80
2017-05-28T04:44:34.056Z,18.80
2017-05-28T04:47:01.815Z,18.80
2017-05-28T04:49:29.548Z,18.70
2017-05-28T04:51:57.301Z,18.60
2017-05-28T04:54:25.023Z,18.60
2017-05-28T04:56:52.809Z,18.80
2017-05-28T04:59:20.556Z,18.90
2017-05-28T05:01:48.296Z,19.00
2017-05-28T05:04:16.061Z,19.10
2017-05-28T05:06:43.793Z,19.00
2017-05-28T05:09:11.551Z,19.00
2017-05-28T05:11:39.280Z,18.90
2017-05-28T05:14:07.040Z,18.90
2017-05-28T05:16:34.776Z,19.00
2017-05-28T05:19:02.505Z,19.00
2017-05-28T05:21:30.272Z,19.20
2017-05-28T05:23:58.044Z,19.30
2017-05-28T05:26:25.791Z,19.40
2017-05-28T05:28:53.540Z,19.60
2017-05-28T05:31:21.337Z,19.70
2017-05-28T05:33:49.073Z,19.70
2017-05-28T05:36:16.816Z,19.80
2017-05-28T05:38:44.565Z,20.00
2017-05-28T05:41:12.407Z,20.00
2017-05-28T05:43:40.165Z,20.10
2017-05-28T05:46:07.892Z,20.20
2017-05-28T05:48:35.640Z,20.30
2017-05-28T05:51:03.388Z,20.40
2017-05-28T05:53:31.166Z,20.40
2017-05-28T05:55:58.932Z,20.50
2017-05-28T05:58:26.681Z,20.70
2017-05-28T06:00:54.435Z,20.80
2017-05-28T06:03:22.186Z,21.00
2017-05-28T06:05:49.920Z,21.20
2017-05-28T06:08:17.669Z,21.40
2017-05-28T06:10:45.393Z,21.60
2017-05-28T06:13:13.155Z,21.90
2017-05-28T06:15:40.883Z,22.10
2017-05-28T06:18:08.662Z,22.20
2017-05-28T06:20:36.411Z,22.30
2017-05-28T06:23:04.173Z,22.40
2017-05-28T06:25:31.951Z,22.60
2017-05-28T06:27:59.676Z,22.60
2017-05-28T06:30:27.467Z,22.50
2017-05-28T06:32:55.233Z,22.30
2017-05-28T06:35:22.960Z,22.20
2017-05-28T06:37:50.715Z,22.10
2017-05-28T06:40:18.450Z,22.10
2017-05-28T06:42:46.300Z,22.30
2017-05-28T06:45:14.028Z,22.40
2017-05-28T06:47:41.768Z,22.40
2017-05-28T06:50:09.526Z,22.40
2017-05-28T06:52:37.259Z,22.60
2017-05-28T06:55:05.016Z,22.50
2017-05-28T06:57:32.748Z,22.80
2017-05-28T07:00:00.520Z,22.90
2017-05-28T07:02:28.274Z,23.30
2017-05-28T07:04:56.028Z,23.50
2017-05-28T07:07:23.784Z,23.30
2017-05-28T07:09:51.551Z,23.00
2017-05-28T07:12:19.319Z,22.60
2017-05-28T07:14:47.049Z,22.20
2017-05-28T07:17:14.803Z,22.10
2017-05-28T07:19:42.561Z,22.10
2017-05-28T07:22:10.294Z,22.00
2017-05-28T07:24:38.076Z,22.30
2017-05-28T07:27:05.801Z,22.40
2017-05-28T07:29:33.538Z,22.50
2017-05-28T07:32:01.292Z,22.60
2017-05-28T07:34:29.044Z,22.50
2017-05-28T07:36:56.797Z,22.30
2017-05-28T07:39:24.575Z,22.40
2017-05-28T07:41:52.347Z,22.60
2017-05-28T07:44:20.188Z,22.70
2017-05-28T07:46:47.916Z,23.00
2017-05-28T07:49:15.666Z,23.30
2017-05-28T07:51:43.404Z,23.50
2017-05-28T07:54:11.369Z,23.60
2017-05-28T07:56:39.112Z,23.50
2017-05-28T07:59:06.842Z,23.30
2017-05-28T08:01:34.611Z,23.30
2017-05-28T08:04:02.343Z,23.60
2017-05-28T08:06:30.089Z,23.70
2017-05-28T08:08:57.817Z,23.60
2017-05-28T08:11:25.588Z,23.40
2017-05-28T08:13:53.325Z,23.00
2017-05-28T08:16:21.052Z,22.90
2017-05-28T08:18:48.808Z,22.70
2017-05-28T08:21:16.542Z,22.50
2017-05-28T08:23:44.298Z,22.40
2017-05-28T08:26:12.043Z,22.30
2017-05-28T08:28:39.960Z,22.00
2017-05-28T08:31:07.684Z,21.90
2017-05-28T08:33:35.416Z,21.80
2017-05-28T08:36:03.193Z,21.60
2017-05-28T08:38:30.916Z,21.50
2017-05-28T08:40:58.717Z,21.50
2017-05-28T08:43:26.440Z,21.50
2017-05-28T08:45:54.174Z,21.50
2017-05-28T08:48:21.923Z,21.50
2017-05-28T08:50:49.652Z,21.40
2017-05-28T08:53:17.413Z,21.30
2017-05-28T08:55:45.150Z,21.20
2017-05-28T08:58:12.917Z,21.30
2017-05-28T09:00:40.674Z,21.50
2017-05-28T09:03:08.410Z,21.50
2017-05-28T09:05:36.164Z,21.70
2017-05-28T09:08:03.898Z,21.80
2017-05-28T09:10:32.414Z,21.70
2017-05-28T09:13:00.148Z,21.60
2017-05-28T09:15:27.913Z,21.60
2017-05-28T09:17:55.649Z,21.60
2017-05-28T09:20:23.489Z,21.70
2017-05-28T09:22:51.233Z,21.80
2017-05-28T09:25:18.965Z,21.80
2017-05-28T09:27:46.744Z,21.70
2017-05-28T09:30:14.479Z,22.00
2017-05-28T09:32:42.228Z,22.20
2017-05-28T09:35:09.965Z,22.20
2017-05-28T09:37:37.745Z,22.30
2017-05-28T09:40:05.481Z,22.10
2017-05-28T09:42:33.232Z,22.20
2017-05-28T09:45:00.969Z,22.10
2017-05-28T09:47:28.725Z,22.40
2017-05-28T09:49:56.453Z,22.50
2017-05-28T09:52:24.220Z,22.60
2017-05-28T09:54:51.944Z,22.40
2017-05-28T09:57:19.678Z,22.40
2017-05-28T09:59:47.435Z,22.50
2017-05-28T10:02:15.167Z,22.70
2017-05-28T10:04:42.930Z,22.70
2017-05-28T10:07:10.664Z,22.60
2017-05-28T10:09:38.838Z,22.50
2017-05-28T10:12:06.592Z,22.70
2017-05-28T10:14:34.354Z,22.50
2017-05-28T10:17:02.158Z,22.00
2017-05-28T10:19:29.894Z,21.90
2017-05-28T10:21:57.623Z,22.20
2017-05-28T10:24:25.381Z,22.50
2017-05-28T10:26:53.107Z,22.90
2017-05-28T10:29:20.865Z,23.00
2017-05-28T10:31:48.596Z,22.90
2017-05-28T10:34:16.376Z,23.00
2017-05-28T10:36:44.108Z,22.90
2017-05-28T10:39:12.210Z,22.70
2017-05-28T10:41:39.968Z,22.70
2017-05-28T10:44:07.700Z,22.90
2017-05-28T10:46:35.462Z,22.90
2017-05-28T10:49:03.196Z,23.10
2017-05-28T10:51:31.880Z,23.30
2017-05-28T10:53:59.606Z,23.60
2017-05-28T10:56:27.700Z,23.80
2017-05-28T10:58:55.437Z,24.00
2017-05-28T11:01:23.164Z,24.30
2017-05-28T11:03:50.916Z,24.30
2017-05-28T11:06:18.639Z,24.30
2017-05-28T11:08:46.398Z,24.20
2017-05-28T11:11:14.132Z,24.20
2017-05-28T11:13:41.886Z,24.20
2017-05-28T11:16:09.619Z,24.10
2017-05-28T11:18:37.400Z,24.30
2017-05-28T11:21:05.131Z,24.60
2017-05-28T11:23:32.856Z,24.60
2017-05-28T11:26:00.601Z,24.50
2017-05-28T11:28:28.342Z,24.30
2017-05-28T11:30:56.094Z,24.10
2017-05-28T11:33:23.828Z,24.00
2017-05-28T11:35:51.584Z,24.10
2017-05-28T11:38:19.337Z,24.40
2017-05-28T11:40:47.068Z,24.50
2017-05-28T11:43:14.817Z,24.40
2017-05-28T11:45:42.600Z,24.50
2017-05-28T11:48:10.578Z,24.50
2017-05-28T11:50:38.532Z,24.50
2017-05-28T11:53:06.273Z,24.70
2017-05-28T11:55:34.005Z,24.80
2017-05-28T11:58:01.765Z,24.90
2017-05-28T12:00:29.536Z,25.00
2017-05-28T12:02:57.272Z,24.90
2017-05-28T12:05:25.032Z,24.90
2017-05-28T12:07:52.766Z,24.80
2017-05-28T12:10:20.496Z,24.80
2017-05-28T12:12:48.259Z,24.90
2017-05-28T12:15:16.021Z,24.80
2017-05-28T12:17:43.783Z,24.60
2017-05-28T12:20:11.512Z,24.60
2017-05-28T12:22:39.280Z,24.70
2017-05-28T12:25:07.023Z,24.70
2017-05-28T12:27:34.790Z,24.90
2017-05-28T12:30:02.521Z,24.90
2017-05-28T12:32:30.272Z,24.80
2017-05-28T12:34:58.047Z,24.80
2017-05-28T12:37:25.788Z,24.90
2017-05-28T12:39:53.586Z,24.80
2017-05-28T12:42:21.321Z,24.40
2017-05-28T12:44:49.084Z,24.30
2017-05-28T12:47:16.817Z,24.00
2017-05-28T12:49:44.594Z,24.40
2017-05-28T12:52:12.335Z,24.40
2017-05-28T12:54:40.065Z,24.20
2017-05-28T12:57:07.812Z,24.00
2017-05-28T12:59:35.541Z,24.20
2017-05-28T13:02:03.313Z,24.20
2017-05-28T13:04:31.048Z,24.00
2017-05-28T13:06:58.820Z,24.30
2017-05-28T13:09:26.569Z,24.50
2017-05-28T13:11:54.300Z,24.20
2017-05-28T13:14:22.053Z,24.00
2017-05-28T13:16:49.785Z,24.20
2017-05-28T13:19:17.577Z,24.20
2017-05-28T13:21:45.311Z,24.10
2017-05-28T13:24:13.061Z,25.60
2017-05-28T13:26:40.832Z,27.70
2017-05-28T13:29:08.559Z,28.90
2017-05-28T13:31:36.322Z,30.60
2017-05-28T13:34:04.049Z,32.20
2017-05-28T13:36:31.805Z,33.30
2017-05-28T13:38:59.528Z,33.90
2017-05-28T13:41:27.281Z,33.50
2017-05-28T13:43:55.014Z,33.60
2017-05-28T13:46:22.785Z,34.10
2017-05-28T13:48:50.517Z,34.20
2017-05-28T13:51:18.257Z,34.60
2017-05-28T13:53:46.036Z,36.30
2017-05-28T13:56:14.357Z,33.20
2017-05-28T13:58:42.126Z,34.70
2017-05-28T14:01:09.940Z,36.80
2017-05-28T14:03:37.679Z,37.20
2017-05-28T14:06:05.432Z,37.60
2017-05-28T14:08:33.171Z,36.00
2017-05-28T14:11:01.052Z,34.60
2017-05-28T14:13:28.781Z,33.20
2017-05-28T14:15:56.523Z,33.50
2017-05-28T14:18:24.274Z,35.20
2017-05-28T14:20:52.001Z,34.20
2017-05-28T14:23:19.761Z,35.20
2017-05-28T14:25:47.495Z,35.30
2017-05-28T14:28:15.285Z,36.30
2017-05-28T14:30:42.274Z,36.30
2017-05-28T14:33:10.008Z,37.60
2017-05-28T14:35:37.771Z,35.30
2017-05-28T14:38:05.521Z,34.40
2017-05-28T14:40:33.279Z,36.00
2017-05-28T14:43:02.187Z,36.50
2017-05-28T14:45:29.970Z,35.80
2017-05-28T14:47:56.933Z,35.80
2017-05-28T14:50:24.660Z,33.90
2017-05-28T14:52:52.449Z,34.10
2017-05-28T14:55:20.177Z,33.40
2017-05-28T14:57:48.017Z,34.40
2017-05-28T15:00:15.743Z,36.80
2017-05-28T15:02:42.719Z,36.80
2017-05-28T15:05:10.475Z,35.10
2017-05-28T15:07:38.224Z,35.60
2017-05-28T15:10:06.013Z,34.20
2017-05-28T15:12:33.920Z,34.40
2017-05-28T15:15:01.663Z,33.90
2017-05-28T15:17:29.416Z,34.20
2017-05-28T15:19:57.144Z,35.20
2017-05-28T15:22:25.247Z,32.70
2017-05-28T15:24:53.346Z,32.30
2017-05-28T15:27:21.100Z,31.90
2017-05-28T15:29:48.845Z,33.50
2017-05-28T15:32:16.637Z,34.60
2017-05-28T15:34:44.370Z,32.70
2017-05-28T15:37:12.418Z,32.50
2017-05-28T15:39:40.140Z,33.30
2017-05-28T15:42:07.114Z,33.20
2017-05-28T15:44:34.896Z,32.00
2017-05-28T15:47:02.620Z,32.40
2017-05-28T15:49:30.355Z,34.00
2017-05-28T15:51:58.163Z,34.00
2017-05-28T15:54:25.948Z,34.90
2017-05-28T15:56:54.608Z,34.90
2017-05-28T15:59:22.358Z,34.70
2017-05-28T16:01:50.106Z,33.70
2017-05-28T16:04:17.878Z,33.90
2017-05-28T16:06:45.621Z,32.90
2017-05-28T16:09:13.397Z,32.80
2017-05-28T16:11:41.137Z,32.00
2017-05-28T16:14:09.259Z,32.70
2017-05-28T16:16:36.236Z,32.70
2017-05-28T16:19:03.983Z,34.10
2017-05-28T16:21:31.748Z,33.40
2017-05-28T16:23:59.482Z,33.90
2017-05-28T16:26:26.559Z,33.90
2017-05-28T16:28:54.342Z,34.60
2017-05-28T16:31:25.776Z,35.10
2017-05-28T16:33:53.548Z,34.30
2017-05-28T16:36:21.282Z,32.20
2017-05-28T16:38:49.041Z,31.80
2017-05-28T16:41:16.776Z,30.70
2017-05-28T16:43:45.449Z,31.00
2017-05-28T16:46:14.089Z,30.90
2017-05-28T16:48:41.845Z,32.00
2017-05-28T16:51:09.608Z,31.10
2017-05-28T16:53:37.374Z,30.10
2017-05-28T16:56:05.102Z,30.40
2017-05-28T16:58:32.879Z,30.90
2017-05-28T17:01:00.608Z,31.80
2017-05-28T17:03:28.618Z,31.60
2017-05-28T17:05:57.304Z,30.20
2017-05-28T17:08:25.046Z,29.80
2017-05-28T17:10:53.084Z,29.70
2017-05-28T17:13:20.857Z,30.00
2017-05-28T17:15:48.628Z,28.00
2017-05-28T17:18:16.385Z,27.50
2017-05-28T17:20:44.150Z,26.40
2017-05-28T17:23:11.906Z,26.40
2017-05-28T17:25:38.868Z,26.40
2017-05-28T17:28:06.653Z,25.60
2017-05-28T17:30:34.393Z,24.40
2017-05-28T17:33:02.120Z,22.60
2017-05-28T17:35:29.885Z,21.70
2017-05-28T17:37:56.854Z,21.60
2017-05-28T17:40:23.870Z,21.10
2017-05-28T17:42:51.644Z,20.90
2017-05-28T17:45:19.440Z,20.90
2017-05-28T17:47:47.245Z,20.80
2017-05-28T17:50:14.258Z,20.80
2017-05-28T17:52:41.988Z,20.70
2017-05-28T17:55:09.718Z,20.50
2017-05-28T17:57:37.504Z,20.30
2017-05-28T18:00:05.476Z,20.20
2017-05-28T18:02:33.248Z,20.00
2017-05-28T18:05:01.008Z,19.80
2017-05-28T18:07:28.826Z,19.80
2017-05-28T18:09:56.588Z,19.70
2017-05-28T18:12:24.343Z,19.60
2017-05-28T18:14:52.403Z,19.50
2017-05-28T18:17:20.172Z,19.40
2017-05-28T18:19:47.904Z,19.40
2017-05-28T18:22:15.664Z,19.40
2017-05-28T18:24:43.462Z,19.30
2017-05-28T18:27:10.469Z,19.30
2017-05-28T18:29:38.570Z,19.00
2017-05-28T18:32:06.348Z,19.00
2017-05-28T18:34:34.136Z,18.90
2017-05-28T18:37:01.867Z,18.80
2017-05-28T18:39:29.629Z,18.70
2017-05-28T18:41:57.361Z,18.60
2017-05-28T18:44:25.929Z,18.50
2017-05-28T18:46:53.693Z,18.50
2017-05-28T18:49:21.457Z,18.50
2017-05-28T18:51:49.245Z,18.40
2017-05-28T18:54:16.993Z,18.40
2017-05-28T18:56:44.737Z,18.30
2017-05-28T18:59:12.502Z,18.20
2017-05-28T19:01:39.465Z,18.20
2017-05-28T19:04:07.429Z,18.10
2017-05-28T19:06:34.453Z,18.00
2017-05-28T19:09:02.245Z,17.90
2017-05-28T19:11:30.010Z,17.90
2017-05-28T19:13:57.750Z,17.80
2017-05-28T19:16:25.752Z,17.70
2017-05-28T19:18:54.057Z,17.70
2017-05-28T19:21:21.032Z,17.60
2017-05-28T19:23:49.625Z,17.50
2017-05-28T19:26:17.352Z,17.40
2017-05-28T19:28:44.969Z,17.40
2017-05-28T19:31:12.733Z,17.30
2017-05-28T19:33:40.504Z,17.20
2017-05-28T19:36:08.280Z,17.20
2017-05-28T19:38:36.078Z,17.10
2017-05-28T19:41:03.832Z,17.10
2017-05-28T19:43:31.570Z,17.10
2017-05-28T19:45:59.344Z,17.00
2017-05-28T19:48:27.190Z,17.00
2017-05-28T19:50:54.988Z,16.90
2017-05-28T19:53:22.727Z,16.90
2017-05-28T19:55:50.483Z,16.80
2017-05-28T19:58:18.431Z,16.70
2017-05-28T20:00:45.400Z,16.70
2017-05-28T20:03:13.140Z,16.60
2017-05-28T20:05:40.919Z,16.50
2017-05-28T20:08:08.685Z,16.50
2017-05-28T20:10:36.432Z,16.50
2017-05-28T20:13:04.180Z,16.40
2017-05-28T20:15:31.908Z,16.30
2017-05-28T20:18:00.249Z,16.30
2017-05-28T20:20:28.388Z,16.20
2017-05-28T20:22:56.113Z,16.20
2017-05-28T20:25:23.886Z,16.20
2017-05-28T20:27:51.616Z,16.10
2017-05-28T20:30:19.377Z,16.00
2017-05-28T20:32:47.111Z,16.00
2017-05-28T20:35:14.889Z,16.00
2017-05-28T20:37:42.684Z,15.90
2017-05-28T20:40:10.420Z,15.80
2017-05-28T20:42:38.188Z,16.10
2017-05-28T20:45:05.949Z,15.80
2017-05-28T20:47:33.719Z,15.70
2017-05-28T20:50:01.469Z,15.70
2017-05-28T20:52:29.252Z,15.60
2017-05-28T20:54:56.985Z,15.60
2017-05-28T20:57:24.747Z,15.60
2017-05-28T20:59:51.743Z,15.60
2017-05-28T21:02:19.481Z,15.40
2017-05-28T21:04:47.263Z,15.50
2017-05-28T21:07:14.996Z,15.40
2017-05-28T21:09:42.773Z,15.30
2017-05-28T21:12:10.528Z,15.30
2017-05-28T21:14:38.267Z,15.20
2017-05-28T21:17:06.071Z,15.20
2017-05-28T21:19:33.834Z,15.10
2017-05-28T21:22:01.596Z,15.00
2017-05-28T21:24:29.359Z,15.00
2017-05-28T21:26:57.157Z,15.00
2017-05-28T21:29:25.085Z,14.90
2017-05-28T21:31:52.821Z,14.90
2017-05-28T21:34:20.556Z,14.90
2017-05-28T21:36:48.316Z,15.00
2017-05-28T21:39:16.075Z,15.00
2017-05-28T21:41:43.821Z,15.00
2017-05-28T21:44:11.612Z,15.00
2017-05-28T21:46:39.352Z,15.00
2017-05-28T21:49:07.496Z,15.10
2017-05-28T21:51:35.238Z,15.10
2017-05-28T21:54:02.972Z,15.10
2017-05-28T21:56:30.729Z,15.10
2017-05-28T21:58:58.456Z,15.20
2017-05-28T22:01:25.443Z,15.20
2017-05-28T22:03:53.184Z,15.20
2017-05-28T22:06:20.966Z,15.20
2017-05-28T22:08:48.704Z,15.30
2017-05-28T22:11:16.460Z,15.40
2017-05-28T22:13:44.224Z,15.50
2017-05-28T22:16:11.953Z,15.40
2017-05-28T22:18:39.744Z,15.30
2017-05-28T22:21:07.484Z,15.20
2017-05-28T22:23:35.249Z,15.20
2017-05-28T22:26:03.014Z,15.00
2017-05-28T22:28:30.744Z,15.00
2017-05-28T22:30:58.500Z,15.00
2017-05-28T22:33:26.224Z,15.10
2017-05-28T22:35:53.208Z,15.10
2017-05-28T22:38:20.933Z,15.30
2017-05-28T22:40:47.920Z,15.30
2017-05-28T22:43:15.669Z,15.10
2017-05-28T22:45:43.435Z,15.20
2017-05-28T22:48:11.174Z,15.20
2017-05-28T22:50:38.948Z,15.20
2017-05-28T22:53:06.693Z,15.10
2017-05-28T22:55:33.715Z,15.10
2017-05-28T22:58:01.448Z,15.10
2017-05-28T23:00:29.184Z,15.10
2017-05-28T23:02:56.941Z,15.20
2017-05-28T23:05:24.690Z,15.20
2017-05-28T23:07:52.454Z,15.10
2017-05-28T23:10:20.179Z,14.90
2017-05-28T23:12:47.924Z,14.90
2017-05-28T23:15:15.692Z,15.00
2017-05-28T23:17:43.432Z,15.10
2017-05-28T23:20:11.189Z,15.00
2017-05-28T23:22:38.924Z,15.00
2017-05-28T23:25:06.698Z,15.00
2017-05-28T23:27:34.440Z,15.00
2017-05-28T23:30:02.327Z,15.00
2017-05-28T23:32:30.088Z,14.90
2017-05-28T23:34:57.813Z,14.90
2017-05-28T23:37:25.768Z,14.90
2017-05-28T23:39:53.510Z,14.90
2017-05-28T23:42:21.240Z,14.90
2017-05-28T23:44:49.001Z,14.90
2017-05-28T23:47:16.737Z,14.90
2017-05-28T23:49:44.493Z,15.00
2017-05-28T23:52:12.228Z,14.90
2017-05-28T23:54:39.243Z,14.90
2017-05-28T23:57:06.968Z,15.10
2017-05-28T23:59:34.704Z,14.90
